sensor_id;sensor_type;location;lat;lon;timestamp;temperature;humidity
44170;DHT22;29836;52.286;9.576;2023-10-19T00:01:09;6.60;99.90
44170;DHT22;29836;52.286;9.576;2023-10-19T00:03:36;6.60;99.90
44170;DHT22;29836;52.286;9.576;2023-10-19T00:06:01;6.60;99.90
44170;DHT22;29836;52.286;9.576;2023-10-19T00:08:28;6.60;99.90
44170;DHT22;29836;52.286;9.576;2023-10-19T00:11:02;6.60;99.90
44170;DHT22;29836;52.286;9.576;2023-10-19T00:13:37;6.60;99.90
44170;DHT22;29836;52.286;9.576;2023-10-19T00:16:04;6.60;99.90
44170;DHT22;29836;52.286;9.576;2023-10-19T00:18:37;6.60;99.90
44170;DHT22;29836;52.286;9.576;2023-10-19T00:21:08;6.60;99.90
44170;DHT22;29836;52.286;9.576;2023-10-19T00:23:45;6.60;99.90
44170;DHT22;29836;52.286;9.576;2023-10-19T00:26:13;6.60;99.90
44170;DHT22;29836;52.286;9.576;2023-10-19T00:28:49;6.60;99.90
44170;DHT22;29836;52.286;9.576;2023-10-19T00:31:24;6.60;99.90
44170;DHT22;29836;52.286;9.576;2023-10-19T00:33:50;6.60;99.90
44170;DHT22;29836;52.286;9.576;2023-10-19T00:36:20;6.60;99.90
44170;DHT22;29836;52.286;9.576;2023-10-19T00:38:48;6.60;99.90
44170;DHT22;29836;52.286;9.576;2023-10-19T00:41:23;6.60;99.90
44170;DHT22;29836;52.286;9.576;2023-10-19T00:43:59;6.60;99.90
44170;DHT22;29836;52.286;9.576;2023-10-19T00:46:48;6.60;99.90
44170;DHT22;29836;52.286;9.576;2023-10-19T00:49:29;6.60;99.90
44170;DHT22;29836;52.286;9.576;2023-10-19T00:51:57;6.60;99.90
44170;DHT22;29836;52.286;9.576;2023-10-19T00:54:39;6.60;99.90
44170;DHT22;29836;52.286;9.576;2023-10-19T00:57:17;6.60;99.90
44170;DHT22;29836;52.286;9.576;2023-10-19T00:59:46;6.60;99.90
44170;DHT22;29836;52.286;9.576;2023-10-19T01:02:15;6.60;99.90
44170;DHT22;29836;52.286;9.576;2023-10-19T01:04:55;6.50;99.90
44170;DHT22;29836;52.286;9.576;2023-10-19T01:07:25;6.50;99.90
44170;DHT22;29836;52.286;9.576;2023-10-19T01:10:02;6.50;99.90
44170;DHT22;29836;52.286;9.576;2023-10-19T01:12:31;6.50;99.90
44170;DHT22;29836;52.286;9.576;2023-10-19T01:15:17;6.50;99.90
44170;DHT22;29836;52.286;9.576;2023-10-19T01:17:44;6.50;99.90
44170;DHT22;29836;52.286;9.576;2023-10-19T01:20:19;6.50;99.90
44170;DHT22;29836;52.286;9.576;2023-10-19T01:22:49;6.50;99.90
44170;DHT22;29836;52.286;9.576;2023-10-19T01:28:32;6.50;99.90
44170;DHT22;29836;52.286;9.576;2023-10-19T01:31:12;6.50;99.90
44170;DHT22;29836;52.286;9.576;2023-10-19T01:33:54;6.50;99.90
44170;DHT22;29836;52.286;9.576;2023-10-19T01:36:23;6.50;99.90
44170;DHT22;29836;52.286;9.576;2023-10-19T01:38:49;6.50;99.90
44170;DHT22;29836;52.286;9.576;2023-10-19T01:41:19;6.50;99.90
44170;DHT22;29836;52.286;9.576;2023-10-19T01:43:47;6.50;99.90
44170;DHT22;29836;52.286;9.576;2023-10-19T01:46:15;6.50;99.90
44170;DHT22;29836;52.286;9.576;2023-10-19T01:48:48;6.50;99.90
44170;DHT22;29836;52.286;9.576;2023-10-19T01:51:19;6.50;99.90
44170;DHT22;29836;52.286;9.576;2023-10-19T01:53:46;6.50;99.90
44170;DHT22;29836;52.286;9.576;2023-10-19T01:56:13;6.50;99.90
44170;DHT22;29836;52.286;9.576;2023-10-19T01:58:41;6.50;99.90
44170;DHT22;29836;52.286;9.576;2023-10-19T02:01:08;6.50;99.90
44170;DHT22;29836;52.286;9.576;2023-10-19T02:03:43;6.50;99.90
44170;DHT22;29836;52.286;9.576;2023-10-19T02:06:13;6.50;99.90
44170;DHT22;29836;52.286;9.576;2023-10-19T02:08:52;6.50;99.90
44170;DHT22;29836;52.286;9.576;2023-10-19T02:11:25;6.40;99.90
44170;DHT22;29836;52.286;9.576;2023-10-19T02:13:53;6.40;99.90
44170;DHT22;29836;52.286;9.576;2023-10-19T02:16:26;6.50;99.90
44170;DHT22;29836;52.286;9.576;2023-10-19T02:18:53;6.50;99.90
44170;DHT22;29836;52.286;9.576;2023-10-19T02:21:19;6.40;99.90
44170;DHT22;29836;52.286;9.576;2023-10-19T02:23:50;6.40;99.90
44170;DHT22;29836;52.286;9.576;2023-10-19T02:26:18;6.40;99.90
44170;DHT22;29836;52.286;9.576;2023-10-19T02:28:48;6.40;99.90
44170;DHT22;29836;52.286;9.576;2023-10-19T02:31:17;6.40;99.90
44170;DHT22;29836;52.286;9.576;2023-10-19T02:33:51;6.40;99.90
44170;DHT22;29836;52.286;9.576;2023-10-19T02:36:30;6.40;99.90
44170;DHT22;29836;52.286;9.576;2023-10-19T02:38:57;6.40;99.90
44170;DHT22;29836;52.286;9.576;2023-10-19T02:41:26;6.40;99.90
44170;DHT22;29836;52.286;9.576;2023-10-19T02:43:53;6.40;99.90
44170;DHT22;29836;52.286;9.576;2023-10-19T02:46:35;6.40;99.90
44170;DHT22;29836;52.286;9.576;2023-10-19T02:49:05;6.40;99.90
44170;DHT22;29836;52.286;9.576;2023-10-19T02:51:41;6.40;99.90
44170;DHT22;29836;52.286;9.576;2023-10-19T02:54:10;6.40;99.90
44170;DHT22;29836;52.286;9.576;2023-10-19T02:56:41;6.40;99.90
44170;DHT22;29836;52.286;9.576;2023-10-19T02:59:09;6.40;99.90
44170;DHT22;29836;52.286;9.576;2023-10-19T03:01:35;6.40;99.90
44170;DHT22;29836;52.286;9.576;2023-10-19T03:04:02;6.40;99.90
44170;DHT22;29836;52.286;9.576;2023-10-19T03:06:30;6.40;99.90
44170;DHT22;29836;52.286;9.576;2023-10-19T03:09:03;6.40;99.90
44170;DHT22;29836;52.286;9.576;2023-10-19T03:11:47;6.40;99.90
44170;DHT22;29836;52.286;9.576;2023-10-19T03:14:18;6.40;99.90
44170;DHT22;29836;52.286;9.576;2023-10-19T03:16:44;6.40;99.90
44170;DHT22;29836;52.286;9.576;2023-10-19T03:19:11;6.40;99.90
44170;DHT22;29836;52.286;9.576;2023-10-19T03:21:38;6.40;99.90
44170;DHT22;29836;52.286;9.576;2023-10-19T03:24:11;6.40;99.90
44170;DHT22;29836;52.286;9.576;2023-10-19T03:26:49;6.40;99.90
44170;DHT22;29836;52.286;9.576;2023-10-19T03:29:16;6.40;99.90
44170;DHT22;29836;52.286;9.576;2023-10-19T03:31:47;6.40;99.90
44170;DHT22;29836;52.286;9.576;2023-10-19T03:34:13;6.40;99.90
44170;DHT22;29836;52.286;9.576;2023-10-19T03:36:39;6.40;99.90
44170;DHT22;29836;52.286;9.576;2023-10-19T03:39:05;6.40;99.90
44170;DHT22;29836;52.286;9.576;2023-10-19T03:41:38;6.40;99.90
44170;DHT22;29836;52.286;9.576;2023-10-19T03:44:08;6.40;99.90
44170;DHT22;29836;52.286;9.576;2023-10-19T03:46:39;6.40;99.90
44170;DHT22;29836;52.286;9.576;2023-10-19T03:49:21;6.40;99.90
44170;DHT22;29836;52.286;9.576;2023-10-19T03:51:47;6.40;99.90
44170;DHT22;29836;52.286;9.576;2023-10-19T03:54:36;6.50;99.90
44170;DHT22;29836;52.286;9.576;2023-10-19T03:57:06;6.50;99.90
44170;DHT22;29836;52.286;9.576;2023-10-19T03:59:40;6.50;99.90
44170;DHT22;29836;52.286;9.576;2023-10-19T04:02:07;6.50;99.90
44170;DHT22;29836;52.286;9.576;2023-10-19T04:04:40;6.50;99.90
44170;DHT22;29836;52.286;9.576;2023-10-19T04:07:09;6.50;99.90
44170;DHT22;29836;52.286;9.576;2023-10-19T04:09:50;6.50;99.90
44170;DHT22;29836;52.286;9.576;2023-10-19T04:12:36;6.50;99.90
44170;DHT22;29836;52.286;9.576;2023-10-19T04:15:07;6.50;99.90
44170;DHT22;29836;52.286;9.576;2023-10-19T04:17:52;6.50;99.90
44170;DHT22;29836;52.286;9.576;2023-10-19T04:20:20;6.50;99.90
44170;DHT22;29836;52.286;9.576;2023-10-19T04:22:47;6.50;99.90
44170;DHT22;29836;52.286;9.576;2023-10-19T04:25:17;6.50;99.90
44170;DHT22;29836;52.286;9.576;2023-10-19T04:27:51;6.50;99.90
44170;DHT22;29836;52.286;9.576;2023-10-19T04:30:17;6.50;99.90
44170;DHT22;29836;52.286;9.576;2023-10-19T04:32:52;6.50;99.90
44170;DHT22;29836;52.286;9.576;2023-10-19T04:35:19;6.50;99.90
44170;DHT22;29836;52.286;9.576;2023-10-19T04:37:52;6.50;99.90
44170;DHT22;29836;52.286;9.576;2023-10-19T04:40:21;6.60;99.90
44170;DHT22;29836;52.286;9.576;2023-10-19T04:42:49;6.60;99.90
44170;DHT22;29836;52.286;9.576;2023-10-19T04:45:15;6.60;99.90
44170;DHT22;29836;52.286;9.576;2023-10-19T04:47:41;6.60;99.90
44170;DHT22;29836;52.286;9.576;2023-10-19T04:50:07;6.60;99.90
44170;DHT22;29836;52.286;9.576;2023-10-19T04:52:34;6.60;99.90
44170;DHT22;29836;52.286;9.576;2023-10-19T04:55:00;6.60;99.90
44170;DHT22;29836;52.286;9.576;2023-10-19T04:57:26;6.60;99.90
44170;DHT22;29836;52.286;9.576;2023-10-19T04:59:52;6.60;99.90
44170;DHT22;29836;52.286;9.576;2023-10-19T05:02:17;6.60;99.90
44170;DHT22;29836;52.286;9.576;2023-10-19T05:04:43;6.60;99.90
44170;DHT22;29836;52.286;9.576;2023-10-19T05:07:11;6.60;99.90
44170;DHT22;29836;52.286;9.576;2023-10-19T05:09:42;6.60;99.90
44170;DHT22;29836;52.286;9.576;2023-10-19T05:12:08;6.60;99.90
44170;DHT22;29836;52.286;9.576;2023-10-19T05:14:38;6.60;99.90
44170;DHT22;29836;52.286;9.576;2023-10-19T05:17:04;6.60;99.90
44170;DHT22;29836;52.286;9.576;2023-10-19T05:19:34;6.60;99.90
44170;DHT22;29836;52.286;9.576;2023-10-19T05:22:00;6.60;99.90
44170;DHT22;29836;52.286;9.576;2023-10-19T05:24:26;6.60;99.90
44170;DHT22;29836;52.286;9.576;2023-10-19T05:26:53;6.60;99.90
44170;DHT22;29836;52.286;9.576;2023-10-19T05:29:21;6.60;99.90
44170;DHT22;29836;52.286;9.576;2023-10-19T05:31:47;6.60;99.90
44170;DHT22;29836;52.286;9.576;2023-10-19T05:34:13;6.60;99.90
44170;DHT22;29836;52.286;9.576;2023-10-19T05:36:38;6.60;99.90
44170;DHT22;29836;52.286;9.576;2023-10-19T05:39:08;6.60;99.90
44170;DHT22;29836;52.286;9.576;2023-10-19T05:41:35;6.60;99.90
44170;DHT22;29836;52.286;9.576;2023-10-19T05:44:00;6.60;99.90
44170;DHT22;29836;52.286;9.576;2023-10-19T05:46:26;6.60;99.90
44170;DHT22;29836;52.286;9.576;2023-10-19T05:48:54;6.60;99.90
44170;DHT22;29836;52.286;9.576;2023-10-19T05:51:21;6.60;99.90
44170;DHT22;29836;52.286;9.576;2023-10-19T05:53:47;6.60;99.90
44170;DHT22;29836;52.286;9.576;2023-10-19T05:56:14;6.60;99.90
44170;DHT22;29836;52.286;9.576;2023-10-19T05:58:42;6.60;99.90
44170;DHT22;29836;52.286;9.576;2023-10-19T06:01:08;6.60;99.90
44170;DHT22;29836;52.286;9.576;2023-10-19T06:03:34;6.60;99.90
44170;DHT22;29836;52.286;9.576;2023-10-19T06:05:59;6.70;99.90
44170;DHT22;29836;52.286;9.576;2023-10-19T06:08:25;6.70;99.90
44170;DHT22;29836;52.286;9.576;2023-10-19T06:10:52;6.60;99.90
44170;DHT22;29836;52.286;9.576;2023-10-19T06:13:18;6.60;99.90
44170;DHT22;29836;52.286;9.576;2023-10-19T06:15:44;6.60;99.90
44170;DHT22;29836;52.286;9.576;2023-10-19T06:18:09;6.60;99.90
44170;DHT22;29836;52.286;9.576;2023-10-19T06:20:36;6.60;99.90
44170;DHT22;29836;52.286;9.576;2023-10-19T06:23:02;6.70;99.90
44170;DHT22;29836;52.286;9.576;2023-10-19T06:25:32;6.70;99.90
44170;DHT22;29836;52.286;9.576;2023-10-19T06:28:00;6.70;99.90
44170;DHT22;29836;52.286;9.576;2023-10-19T06:30:27;6.70;99.90
44170;DHT22;29836;52.286;9.576;2023-10-19T06:33:02;6.70;99.90
44170;DHT22;29836;52.286;9.576;2023-10-19T06:35:29;6.70;99.90
44170;DHT22;29836;52.286;9.576;2023-10-19T06:37:57;6.70;99.90
44170;DHT22;29836;52.286;9.576;2023-10-19T06:40:23;6.70;99.90
44170;DHT22;29836;52.286;9.576;2023-10-19T06:42:49;6.70;99.90
44170;DHT22;29836;52.286;9.576;2023-10-19T06:45:16;6.70;99.90
44170;DHT22;29836;52.286;9.576;2023-10-19T06:47:49;6.80;99.90
44170;DHT22;29836;52.286;9.576;2023-10-19T06:50:17;6.70;99.90
44170;DHT22;29836;52.286;9.576;2023-10-19T06:52:44;6.70;99.90
44170;DHT22;29836;52.286;9.576;2023-10-19T06:55:10;6.70;99.90
44170;DHT22;29836;52.286;9.576;2023-10-19T06:57:40;6.80;99.90
44170;DHT22;29836;52.286;9.576;2023-10-19T07:00:12;6.80;99.90
44170;DHT22;29836;52.286;9.576;2023-10-19T07:02:48;6.80;99.90
44170;DHT22;29836;52.286;9.576;2023-10-19T07:05:15;6.80;99.90
44170;DHT22;29836;52.286;9.576;2023-10-19T07:07:45;6.90;99.90
44170;DHT22;29836;52.286;9.576;2023-10-19T07:10:12;6.80;99.90
44170;DHT22;29836;52.286;9.576;2023-10-19T07:12:41;6.90;99.90
44170;DHT22;29836;52.286;9.576;2023-10-19T07:15:07;6.90;99.90
44170;DHT22;29836;52.286;9.576;2023-10-19T07:17:35;6.90;99.90
44170;DHT22;29836;52.286;9.576;2023-10-19T07:20:01;6.90;99.90
44170;DHT22;29836;52.286;9.576;2023-10-19T07:22:34;6.90;99.90
44170;DHT22;29836;52.286;9.576;2023-10-19T07:25:04;6.90;99.90
44170;DHT22;29836;52.286;9.576;2023-10-19T07:27:31;6.90;99.90
44170;DHT22;29836;52.286;9.576;2023-10-19T07:29:57;6.90;99.90
44170;DHT22;29836;52.286;9.576;2023-10-19T07:32:22;6.90;99.90
44170;DHT22;29836;52.286;9.576;2023-10-19T07:34:49;7.00;99.90
44170;DHT22;29836;52.286;9.576;2023-10-19T07:37:14;7.00;99.90
44170;DHT22;29836;52.286;9.576;2023-10-19T07:39:46;7.00;99.90
44170;DHT22;29836;52.286;9.576;2023-10-19T07:42:12;7.10;99.90
44170;DHT22;29836;52.286;9.576;2023-10-19T07:44:37;7.10;99.90
44170;DHT22;29836;52.286;9.576;2023-10-19T07:47:03;7.10;99.90
44170;DHT22;29836;52.286;9.576;2023-10-19T07:49:29;7.20;99.90
44170;DHT22;29836;52.286;9.576;2023-10-19T07:51:56;7.20;99.90
44170;DHT22;29836;52.286;9.576;2023-10-19T07:54:22;7.20;99.90
44170;DHT22;29836;52.286;9.576;2023-10-19T07:56:48;7.20;99.90
44170;DHT22;29836;52.286;9.576;2023-10-19T07:59:15;7.20;99.90
44170;DHT22;29836;52.286;9.576;2023-10-19T08:01:41;7.20;99.90
44170;DHT22;29836;52.286;9.576;2023-10-19T08:04:07;7.30;99.90
44170;DHT22;29836;52.286;9.576;2023-10-19T08:06:33;7.30;99.90
44170;DHT22;29836;52.286;9.576;2023-10-19T08:08:58;7.30;99.90
44170;DHT22;29836;52.286;9.576;2023-10-19T08:11:25;7.40;99.90
44170;DHT22;29836;52.286;9.576;2023-10-19T08:13:50;7.30;99.90
44170;DHT22;29836;52.286;9.576;2023-10-19T08:16:16;7.40;99.90
44170;DHT22;29836;52.286;9.576;2023-10-19T08:18:43;7.40;99.90
44170;DHT22;29836;52.286;9.576;2023-10-19T08:21:08;7.40;99.90
44170;DHT22;29836;52.286;9.576;2023-10-19T08:23:34;7.40;99.90
44170;DHT22;29836;52.286;9.576;2023-10-19T08:26:00;7.40;99.90
44170;DHT22;29836;52.286;9.576;2023-10-19T08:28:25;7.40;99.90
44170;DHT22;29836;52.286;9.576;2023-10-19T08:30:51;7.50;99.90
44170;DHT22;29836;52.286;9.576;2023-10-19T08:33:23;7.60;99.90
44170;DHT22;29836;52.286;9.576;2023-10-19T08:35:54;7.60;99.90
44170;DHT22;29836;52.286;9.576;2023-10-19T08:38:20;7.60;99.90
44170;DHT22;29836;52.286;9.576;2023-10-19T08:40:47;7.70;99.90
44170;DHT22;29836;52.286;9.576;2023-10-19T08:43:13;7.80;99.90
44170;DHT22;29836;52.286;9.576;2023-10-19T08:45:39;7.80;99.90
44170;DHT22;29836;52.286;9.576;2023-10-19T08:48:05;7.80;99.90
44170;DHT22;29836;52.286;9.576;2023-10-19T08:50:32;7.80;99.90
44170;DHT22;29836;52.286;9.576;2023-10-19T08:53:00;7.70;99.90
44170;DHT22;29836;52.286;9.576;2023-10-19T08:55:28;7.80;99.90
44170;DHT22;29836;52.286;9.576;2023-10-19T08:57:53;7.80;99.90
44170;DHT22;29836;52.286;9.576;2023-10-19T09:00:19;7.80;99.90
44170;DHT22;29836;52.286;9.576;2023-10-19T09:02:46;7.90;99.90
44170;DHT22;29836;52.286;9.576;2023-10-19T09:05:12;7.90;99.90
44170;DHT22;29836;52.286;9.576;2023-10-19T09:07:52;8.00;99.90
44170;DHT22;29836;52.286;9.576;2023-10-19T09:10:25;8.00;99.90
44170;DHT22;29836;52.286;9.576;2023-10-19T09:13:04;8.10;99.90
44170;DHT22;29836;52.286;9.576;2023-10-19T09:15:33;8.20;99.90
44170;DHT22;29836;52.286;9.576;2023-10-19T09:18:15;8.30;99.90
44170;DHT22;29836;52.286;9.576;2023-10-19T09:20:42;8.40;99.90
44170;DHT22;29836;52.286;9.576;2023-10-19T09:23:12;8.50;99.90
44170;DHT22;29836;52.286;9.576;2023-10-19T09:25:38;8.50;99.90
44170;DHT22;29836;52.286;9.576;2023-10-19T09:28:05;8.50;99.90
44170;DHT22;29836;52.286;9.576;2023-10-19T09:30:32;8.60;99.90
44170;DHT22;29836;52.286;9.576;2023-10-19T09:32:59;8.70;99.90
44170;DHT22;29836;52.286;9.576;2023-10-19T09:35:26;8.70;99.90
44170;DHT22;29836;52.286;9.576;2023-10-19T09:37:56;8.70;99.90
44170;DHT22;29836;52.286;9.576;2023-10-19T09:40:23;8.70;99.90
44170;DHT22;29836;52.286;9.576;2023-10-19T09:42:53;8.70;99.90
44170;DHT22;29836;52.286;9.576;2023-10-19T09:45:23;8.70;99.90
44170;DHT22;29836;52.286;9.576;2023-10-19T09:47:54;8.60;99.90
44170;DHT22;29836;52.286;9.576;2023-10-19T09:50:20;8.70;99.90
44170;DHT22;29836;52.286;9.576;2023-10-19T09:52:45;8.80;99.90
44170;DHT22;29836;52.286;9.576;2023-10-19T09:55:22;8.90;99.90
44170;DHT22;29836;52.286;9.576;2023-10-19T09:58:16;9.00;99.90
44170;DHT22;29836;52.286;9.576;2023-10-19T10:00:45;9.00;99.90
44170;DHT22;29836;52.286;9.576;2023-10-19T10:03:45;9.00;99.90
44170;DHT22;29836;52.286;9.576;2023-10-19T10:06:12;8.90;99.90
44170;DHT22;29836;52.286;9.576;2023-10-19T10:08:41;8.80;99.90
44170;DHT22;29836;52.286;9.576;2023-10-19T10:11:27;8.70;99.90
44170;DHT22;29836;52.286;9.576;2023-10-19T10:13:54;8.70;99.90
44170;DHT22;29836;52.286;9.576;2023-10-19T10:16:27;8.70;99.90
44170;DHT22;29836;52.286;9.576;2023-10-19T10:18:58;8.70;99.90
44170;DHT22;29836;52.286;9.576;2023-10-19T10:21:28;8.70;99.90
44170;DHT22;29836;52.286;9.576;2023-10-19T10:24:00;8.80;99.90
44170;DHT22;29836;52.286;9.576;2023-10-19T10:26:28;8.80;99.90
44170;DHT22;29836;52.286;9.576;2023-10-19T10:29:21;8.80;99.90
44170;DHT22;29836;52.286;9.576;2023-10-19T10:31:50;8.80;99.90
44170;DHT22;29836;52.286;9.576;2023-10-19T10:37:04;9.00;99.90
44170;DHT22;29836;52.286;9.576;2023-10-19T10:39:34;9.10;99.90
44170;DHT22;29836;52.286;9.576;2023-10-19T10:42:09;9.10;99.90
44170;DHT22;29836;52.286;9.576;2023-10-19T10:44:39;9.10;99.90
44170;DHT22;29836;52.286;9.576;2023-10-19T10:47:19;9.10;99.90
44170;DHT22;29836;52.286;9.576;2023-10-19T10:49:52;9.20;99.90
44170;DHT22;29836;52.286;9.576;2023-10-19T10:52:35;9.20;99.90
44170;DHT22;29836;52.286;9.576;2023-10-19T10:55:11;9.20;99.90
44170;DHT22;29836;52.286;9.576;2023-10-19T10:57:38;9.20;99.90
44170;DHT22;29836;52.286;9.576;2023-10-19T11:00:08;9.30;99.90
44170;DHT22;29836;52.286;9.576;2023-10-19T11:02:41;9.30;99.90
44170;DHT22;29836;52.286;9.576;2023-10-19T11:05:18;9.30;99.90
44170;DHT22;29836;52.286;9.576;2023-10-19T11:08:23;9.40;99.90
44170;DHT22;29836;52.286;9.576;2023-10-19T11:10:49;9.50;99.90
44170;DHT22;29836;52.286;9.576;2023-10-19T11:13:23;9.50;99.90
44170;DHT22;29836;52.286;9.576;2023-10-19T11:15:51;9.60;99.90
44170;DHT22;29836;52.286;9.576;2023-10-19T11:18:37;9.70;99.90
44170;DHT22;29836;52.286;9.576;2023-10-19T11:21:10;9.80;99.90
44170;DHT22;29836;52.286;9.576;2023-10-19T11:23:41;9.90;99.90
44170;DHT22;29836;52.286;9.576;2023-10-19T11:26:12;9.90;99.90
44170;DHT22;29836;52.286;9.576;2023-10-19T11:28:38;9.90;99.90
44170;DHT22;29836;52.286;9.576;2023-10-19T11:31:21;10.00;99.90
44170;DHT22;29836;52.286;9.576;2023-10-19T11:33:54;10.00;99.90
44170;DHT22;29836;52.286;9.576;2023-10-19T12:46:31;10.80;99.90
44170;DHT22;29836;52.286;9.576;2023-10-19T12:48:56;10.70;99.90
44170;DHT22;29836;52.286;9.576;2023-10-19T13:02:07;10.40;99.90
44170;DHT22;29836;52.286;9.576;2023-10-19T13:04:40;10.30;99.90
44170;DHT22;29836;52.286;9.576;2023-10-19T13:07:07;10.30;99.90
44170;DHT22;29836;52.286;9.576;2023-10-19T13:09:33;10.30;99.90
44170;DHT22;29836;52.286;9.576;2023-10-19T13:12:01;10.20;99.90
44170;DHT22;29836;52.286;9.576;2023-10-19T13:14:27;10.20;99.90
44170;DHT22;29836;52.286;9.576;2023-10-19T13:16:53;10.10;99.90
44170;DHT22;29836;52.286;9.576;2023-10-19T13:19:22;10.20;99.90
44170;DHT22;29836;52.286;9.576;2023-10-19T13:21:52;10.10;99.90
44170;DHT22;29836;52.286;9.576;2023-10-19T13:24:20;10.10;99.90
44170;DHT22;29836;52.286;9.576;2023-10-19T13:26:47;10.00;99.90
44170;DHT22;29836;52.286;9.576;2023-10-19T13:29:12;10.00;99.90
44170;DHT22;29836;52.286;9.576;2023-10-19T13:31:38;9.90;99.90
44170;DHT22;29836;52.286;9.576;2023-10-19T13:34:03;9.80;99.90
44170;DHT22;29836;52.286;9.576;2023-10-19T13:36:35;9.80;99.90
44170;DHT22;29836;52.286;9.576;2023-10-19T13:39:01;9.90;99.90
44170;DHT22;29836;52.286;9.576;2023-10-19T13:41:27;9.90;99.90
44170;DHT22;29836;52.286;9.576;2023-10-19T13:43:52;9.90;99.90
44170;DHT22;29836;52.286;9.576;2023-10-19T13:46:17;9.90;99.90
44170;DHT22;29836;52.286;9.576;2023-10-19T13:48:43;9.80;99.90
44170;DHT22;29836;52.286;9.576;2023-10-19T13:51:10;9.80;99.90
44170;DHT22;29836;52.286;9.576;2023-10-19T13:53:40;9.80;99.90
44170;DHT22;29836;52.286;9.576;2023-10-19T13:56:09;9.80;99.90
44170;DHT22;29836;52.286;9.576;2023-10-19T13:58:35;9.80;99.90
44170;DHT22;29836;52.286;9.576;2023-10-19T14:01:01;10.00;99.90
44170;DHT22;29836;52.286;9.576;2023-10-19T14:03:26;10.20;99.90
44170;DHT22;29836;52.286;9.576;2023-10-19T14:05:52;10.30;99.90
44170;DHT22;29836;52.286;9.576;2023-10-19T14:08:21;10.30;99.90
44170;DHT22;29836;52.286;9.576;2023-10-19T14:10:47;10.20;99.90
44170;DHT22;29836;52.286;9.576;2023-10-19T14:13:13;10.10;99.90
44170;DHT22;29836;52.286;9.576;2023-10-19T14:15:40;10.00;99.90
44170;DHT22;29836;52.286;9.576;2023-10-19T14:18:06;9.90;99.90
44170;DHT22;29836;52.286;9.576;2023-10-19T14:20:32;9.90;99.90
44170;DHT22;29836;52.286;9.576;2023-10-19T14:22:59;9.80;99.90
44170;DHT22;29836;52.286;9.576;2023-10-19T14:25:25;9.80;99.90
44170;DHT22;29836;52.286;9.576;2023-10-19T14:27:54;9.80;99.90
44170;DHT22;29836;52.286;9.576;2023-10-19T14:30:24;9.80;99.90
44170;DHT22;29836;52.286;9.576;2023-10-19T14:32:51;9.80;99.90
44170;DHT22;29836;52.286;9.576;2023-10-19T14:35:18;9.80;99.90
44170;DHT22;29836;52.286;9.576;2023-10-19T14:37:49;9.90;99.90
44170;DHT22;29836;52.286;9.576;2023-10-19T14:40:20;9.90;99.90
44170;DHT22;29836;52.286;9.576;2023-10-19T14:42:47;9.90;99.90
44170;DHT22;29836;52.286;9.576;2023-10-19T14:45:16;9.90;99.90
44170;DHT22;29836;52.286;9.576;2023-10-19T14:47:45;9.80;99.90
44170;DHT22;29836;52.286;9.576;2023-10-19T14:50:12;9.80;99.90
44170;DHT22;29836;52.286;9.576;2023-10-19T14:52:44;9.70;99.90
44170;DHT22;29836;52.286;9.576;2023-10-19T14:55:10;9.70;99.90
44170;DHT22;29836;52.286;9.576;2023-10-19T14:57:37;9.70;99.90
44170;DHT22;29836;52.286;9.576;2023-10-19T15:00:05;9.60;99.90
44170;DHT22;29836;52.286;9.576;2023-10-19T15:02:45;9.50;99.90
44170;DHT22;29836;52.286;9.576;2023-10-19T15:05:11;9.50;99.90
44170;DHT22;29836;52.286;9.576;2023-10-19T15:07:46;9.50;99.90
44170;DHT22;29836;52.286;9.576;2023-10-19T15:10:23;9.40;99.90
44170;DHT22;29836;52.286;9.576;2023-10-19T15:12:49;9.40;99.90
44170;DHT22;29836;52.286;9.576;2023-10-19T15:15:15;9.40;99.90
44170;DHT22;29836;52.286;9.576;2023-10-19T15:17:41;9.40;99.90
44170;DHT22;29836;52.286;9.576;2023-10-19T15:20:08;9.40;99.90
44170;DHT22;29836;52.286;9.576;2023-10-19T15:22:37;9.40;99.90
44170;DHT22;29836;52.286;9.576;2023-10-19T15:25:04;9.40;99.90
44170;DHT22;29836;52.286;9.576;2023-10-19T15:27:30;9.40;99.90
44170;DHT22;29836;52.286;9.576;2023-10-19T15:29:56;9.40;99.90
44170;DHT22;29836;52.286;9.576;2023-10-19T15:32:22;9.40;99.90
44170;DHT22;29836;52.286;9.576;2023-10-19T15:34:48;9.40;99.90
44170;DHT22;29836;52.286;9.576;2023-10-19T15:37:13;9.40;99.90
44170;DHT22;29836;52.286;9.576;2023-10-19T15:39:39;9.40;99.90
44170;DHT22;29836;52.286;9.576;2023-10-19T15:42:04;9.30;99.90
44170;DHT22;29836;52.286;9.576;2023-10-19T15:44:33;9.10;99.90
44170;DHT22;29836;52.286;9.576;2023-10-19T15:46:59;9.30;99.90
44170;DHT22;29836;52.286;9.576;2023-10-19T15:49:24;9.20;99.90
44170;DHT22;29836;52.286;9.576;2023-10-19T15:51:51;9.10;99.90
44170;DHT22;29836;52.286;9.576;2023-10-19T15:54:17;9.10;99.90
44170;DHT22;29836;52.286;9.576;2023-10-19T15:56:42;9.00;99.90
44170;DHT22;29836;52.286;9.576;2023-10-19T15:59:08;9.00;99.90
44170;DHT22;29836;52.286;9.576;2023-10-19T16:01:33;9.00;99.90
44170;DHT22;29836;52.286;9.576;2023-10-19T16:03:59;9.00;99.90
44170;DHT22;29836;52.286;9.576;2023-10-19T16:06:25;8.90;99.90
44170;DHT22;29836;52.286;9.576;2023-10-19T16:08:50;8.90;99.90
44170;DHT22;29836;52.286;9.576;2023-10-19T16:11:17;8.90;99.90
44170;DHT22;29836;52.286;9.576;2023-10-19T16:13:43;8.80;99.90
44170;DHT22;29836;52.286;9.576;2023-10-19T16:16:09;8.80;99.90
44170;DHT22;29836;52.286;9.576;2023-10-19T16:18:36;8.70;99.90
44170;DHT22;29836;52.286;9.576;2023-10-19T16:21:04;8.80;99.90
44170;DHT22;29836;52.286;9.576;2023-10-19T16:23:30;8.80;99.90
44170;DHT22;29836;52.286;9.576;2023-10-19T16:25:59;8.80;99.90
44170;DHT22;29836;52.286;9.576;2023-10-19T16:28:26;8.70;99.90
44170;DHT22;29836;52.286;9.576;2023-10-19T16:30:52;8.70;99.90
44170;DHT22;29836;52.286;9.576;2023-10-19T16:33:17;8.70;99.90
44170;DHT22;29836;52.286;9.576;2023-10-19T16:35:43;8.70;99.90
44170;DHT22;29836;52.286;9.576;2023-10-19T16:38:08;8.70;99.90
44170;DHT22;29836;52.286;9.576;2023-10-19T16:40:38;8.60;99.90
44170;DHT22;29836;52.286;9.576;2023-10-19T16:43:07;8.60;99.90
44170;DHT22;29836;52.286;9.576;2023-10-19T16:45:33;8.50;99.90
44170;DHT22;29836;52.286;9.576;2023-10-19T16:47:59;8.50;99.90
44170;DHT22;29836;52.286;9.576;2023-10-19T16:50:24;8.50;99.90
44170;DHT22;29836;52.286;9.576;2023-10-19T16:52:50;8.50;99.90
44170;DHT22;29836;52.286;9.576;2023-10-19T16:55:15;8.50;99.90
44170;DHT22;29836;52.286;9.576;2023-10-19T16:57:41;8.50;99.90
44170;DHT22;29836;52.286;9.576;2023-10-19T17:00:07;8.50;99.90
44170;DHT22;29836;52.286;9.576;2023-10-19T17:02:32;8.50;99.90
44170;DHT22;29836;52.286;9.576;2023-10-19T17:04:58;8.40;99.90
44170;DHT22;29836;52.286;9.576;2023-10-19T17:07:24;8.40;99.90
44170;DHT22;29836;52.286;9.576;2023-10-19T17:09:50;8.40;99.90
44170;DHT22;29836;52.286;9.576;2023-10-19T17:12:15;8.40;99.90
44170;DHT22;29836;52.286;9.576;2023-10-19T17:14:41;8.30;99.90
44170;DHT22;29836;52.286;9.576;2023-10-19T17:17:07;8.30;99.90
44170;DHT22;29836;52.286;9.576;2023-10-19T17:19:34;8.30;99.90
44170;DHT22;29836;52.286;9.576;2023-10-19T17:22:00;8.30;99.90
44170;DHT22;29836;52.286;9.576;2023-10-19T17:24:26;8.30;99.90